Aviation Digital Data Service (ADDS)

Output produced by TAFs form (1402 UTC 08 February 2016)
found at http://aviationweather.gov/adds/tafs/
 
KELP 081158Z 0812/0912 02006KT P6SM SCT250 
     FM081800 10005KT P6SM SCT250 
     FM090600 VRB06KT P6SM BKN250